Time;durP1;ratioP1;P1;durP2;ratioP2;P2;SDS_P1;SDS_P2;PMS_P1;PMS_P2;Temp;Humidity;BMP_temperature;BMP_pressure;BME280_temperature;BME280_humidity;BME280_pressure;Samples;Min_cycle;Max_cycle;Signal;HPM_P1;HPM_P2
2023/09/24 00:00:15;;;;;;;;;;;;;;;24.86;57.12;100495.03;7397819;19;1439;-41
2023/09/24 00:02:44;;;;;;;;;;;;;;;24.89;57.08;100483.88;7397142;19;1391;-40
2023/09/24 00:05:16;;;;;;;;;;;;;;;24.85;57.05;100484.38;7395378;19;1454;-41
2023/09/24 00:07:44;;;;;;;;;;;;;;;24.85;56.88;100493.38;7395669;19;1852;-41
2023/09/24 00:10:12;;;;;;;;;;;;;;;24.88;56.72;100486.75;7397337;19;1615;-41
2023/09/24 00:12:41;;;;;;;;;;;;;;;24.84;56.74;100497.09;7398214;19;1498;-40
2023/09/24 00:15:12;;;;;;;;;;;;;;;24.87;56.93;100485.91;7394429;19;1409;-40
2023/09/24 00:17:40;;;;;;;;;;;;;;;24.88;56.87;100486.75;7396675;19;1638;-41
2023/09/24 00:20:09;;;;;;;;;;;;;;;24.86;56.61;100489.63;7397616;19;1481;-40
2023/09/24 00:22:41;;;;;;;;;;;;;;;24.84;56.72;100485.44;7394740;19;1361;-40
2023/09/24 00:25:10;;;;;;;;;;;;;;;24.88;56.60;100495.69;7398088;19;1324;-40
2023/09/24 00:27:38;;;;;;;;;;;;;;;24.90;56.58;100512.59;7394310;19;1844;-40
2023/09/24 00:30:08;;;;;;;;;;;;;;;24.86;56.62;100495.03;7395711;19;1503;-40
2023/09/24 00:32:36;;;;;;;;;;;;;;;24.89;56.48;100504.66;7395921;19;1296;-41
2023/09/24 00:35:05;;;;;;;;;;;;;;;24.84;56.38;100491.66;7396542;19;1397;-40
2023/09/24 00:37:34;;;;;;;;;;;;;;;24.89;56.32;100505.50;7396306;19;1475;-40
2023/09/24 00:40:07;;;;;;;;;;;;;;;24.88;56.24;100503.81;7396523;19;1264;-40
2023/09/24 00:42:36;;;;;;;;;;;;;;;24.90;56.14;100522.56;7396764;19;1448;-40
2023/09/24 00:45:05;;;;;;;;;;;;;;;24.91;56.30;100522.41;7396262;19;1438;-41
2023/09/24 00:47:33;;;;;;;;;;;;;;;24.90;56.27;100518.00;7393875;19;1849;-41
2023/09/24 00:50:01;;;;;;;;;;;;;;;24.87;56.26;100522.91;7395810;19;1446;-41
2023/09/24 00:52:30;;;;;;;;;;;;;;;24.79;56.15;100507.63;7383421;19;1539;-40
2023/09/24 00:54:59;;;;;;;;;;;;;;;24.79;56.25;100516.56;7396081;19;1715;-41
2023/09/24 00:57:32;;;;;;;;;;;;;;;24.81;56.34;100525.34;7396802;19;1561;-41
2023/09/24 01:00:05;;;;;;;;;;;;;;;24.84;56.04;100528.69;7396760;19;1643;-41
2023/09/24 01:02:34;;;;;;;;;;;;;;;24.75;55.97;100525.19;7396167;19;1580;-41
2023/09/24 01:05:03;;;;;;;;;;;;;;;24.75;55.75;100528.75;7395653;19;1533;-41
2023/09/24 01:07:32;;;;;;;;;;;;;;;24.69;55.69;100525.91;7395928;19;1845;-40
2023/09/24 01:10:01;;;;;;;;;;;;;;;24.73;55.60;100535.34;7395593;19;1755;-40
2023/09/24 01:12:32;;;;;;;;;;;;;;;24.70;55.74;100520.34;7395516;19;1662;-41
2023/09/24 01:15:00;;;;;;;;;;;;;;;24.67;55.96;100536.94;7395958;19;1310;-41
2023/09/24 01:17:29;;;;;;;;;;;;;;;24.68;55.77;100533.19;7395173;19;1668;-40
2023/09/24 01:19:58;;;;;;;;;;;;;;;24.63;55.76;100519.38;7395262;19;1729;-41
2023/09/24 01:22:30;;;;;;;;;;;;;;;24.61;55.99;100533.06;7395171;19;1671;-41
2023/09/24 01:24:59;;;;;;;;;;;;;;;24.59;55.90;100521.59;7395732;19;1719;-41
2023/09/24 01:27:28;;;;;;;;;;;;;;;24.61;56.04;100524.09;7395497;19;1869;-40
2023/09/24 01:29:56;;;;;;;;;;;;;;;24.61;55.89;100526.81;7395684;19;1735;-40
2023/09/24 01:32:25;;;;;;;;;;;;;;;24.60;55.91;100528.66;7395756;19;1683;-40
2023/09/24 01:34:54;;;;;;;;;;;;;;;24.69;55.88;100569.19;7395529;19;1525;-40
2023/09/24 01:37:23;;;;;;;;;;;;;;;24.67;55.79;100544.19;7395418;19;1465;-40
2023/09/24 01:39:55;;;;;;;;;;;;;;;24.69;55.55;100552.94;7395489;19;1583;-40
2023/09/24 01:42:23;;;;;;;;;;;;;;;24.65;55.73;100549.78;7400573;19;1486;-40
2023/09/24 01:44:51;;;;;;;;;;;;;;;24.64;55.90;100544.56;7401874;19;1632;-40
2023/09/24 01:47:21;;;;;;;;;;;;;;;24.58;55.71;100541.53;7400822;19;1847;-41
2023/09/24 01:49:50;;;;;;;;;;;;;;;24.61;55.74;100557.41;7402366;19;1514;-40
2023/09/24 01:52:19;;;;;;;;;;;;;;;24.60;55.48;100542.19;7387621;19;1467;-40
2023/09/24 01:54:48;;;;;;;;;;;;;;;24.57;55.62;100556.09;7403318;19;1577;-41
2023/09/24 01:57:20;;;;;;;;;;;;;;;24.55;55.82;100550.00;7401734;19;1708;-41
2023/09/24 01:59:49;;;;;;;;;;;;;;;24.64;55.87;100552.66;7402876;19;1573;-41
2023/09/24 02:02:17;;;;;;;;;;;;;;;24.60;55.56;100555.72;7401803;19;1714;-40
2023/09/24 02:04:45;;;;;;;;;;;;;;;24.60;55.75;100561.13;7401421;19;1406;-41
2023/09/24 02:07:15;;;;;;;;;;;;;;;24.58;55.63;100563.16;7400552;19;1847;-41
2023/09/24 02:09:43;;;;;;;;;;;;;;;24.56;55.83;100559.78;7402645;19;1771;-41
2023/09/24 02:12:12;;;;;;;;;;;;;;;24.51;55.89;100551.38;7401989;19;1714;-40
2023/09/24 02:14:43;;;;;;;;;;;;;;;24.56;55.88;100567.91;7401838;19;1659;-40
2023/09/24 02:17:11;;;;;;;;;;;;;;;24.58;55.69;100578.53;7401663;19;1567;-40
2023/09/24 02:19:41;;;;;;;;;;;;;;;24.56;55.67;100559.78;7400692;19;1660;-41
2023/09/24 02:22:11;;;;;;;;;;;;;;;24.49;55.53;100563.34;7402167;19;1599;-40
2023/09/24 02:24:40;;;;;;;;;;;;;;;24.57;55.53;100572.31;7400678;19;1537;-40
2023/09/24 02:27:09;;;;;;;;;;;;;;;24.57;55.70;100555.22;7399635;19;1851;-41
2023/09/24 02:29:37;;;;;;;;;;;;;;;24.53;55.57;100554.75;7400416;19;1783;-41
2023/09/24 02:32:09;;;;;;;;;;;;;;;24.56;55.30;100554.38;7400224;19;1711;-41
2023/09/24 02:34:37;;;;;;;;;;;;;;;24.52;55.42;100563.88;7401109;19;1403;-41
2023/09/24 02:37:06;;;;;;;;;;;;;;;24.57;55.41;100560.63;7401622;19;1628;-41
2023/09/24 02:39:34;;;;;;;;;;;;;;;24.55;55.40;100551.84;7400551;19;1426;-40
2023/09/24 02:42:02;;;;;;;;;;;;;;;24.53;55.37;100560.16;7399707;19;1725;-41
2023/09/24 02:44:31;;;;;;;;;;;;;;;24.58;55.22;100546.94;7398926;19;1397;-41
2023/09/24 02:46:59;;;;;;;;;;;;;;;24.58;55.03;100556.91;7397512;19;1854;-41
2023/09/24 02:49:30;;;;;;;;;;;;;;;24.55;55.34;100541.91;7399218;19;1716;-41
2023/09/24 02:51:59;;;;;;;;;;;;;;;24.59;55.07;100556.75;7386162;19;1568;-41
2023/09/24 02:54:27;;;;;;;;;;;;;;;24.57;55.25;100545.28;7398382;19;2841;-41
2023/09/24 02:56:56;;;;;;;;;;;;;;;24.53;55.34;100545.78;7399907;19;1704;-41
2023/09/24 02:59:24;;;;;;;;;;;;;;;24.50;55.13;100541.56;7399019;19;1810;-41
2023/09/24 03:01:52;;;;;;;;;;;;;;;24.52;55.28;100552.22;7399746;19;2731;-41
2023/09/24 03:04:21;;;;;;;;;;;;;;;24.49;54.84;100547.13;7399351;19;1662;-41
2023/09/24 03:06:52;;;;;;;;;;;;;;;24.51;55.23;100555.94;7400207;19;1821;-41
2023/09/24 03:09:21;;;;;;;;;;;;;;;24.42;54.93;100538.88;7398202;19;1285;-41
2023/09/24 03:11:49;;;;;;;;;;;;;;;24.55;55.11;100557.25;7399906;19;1367;-41
2023/09/24 03:14:17;;;;;;;;;;;;;;;24.52;54.75;100542.25;7398678;19;1442;-41
2023/09/24 03:16:45;;;;;;;;;;;;;;;24.51;54.90;100545.97;7397469;19;1632;-42
2023/09/24 03:19:14;;;;;;;;;;;;;;;24.53;54.84;100541.25;7396397;19;1388;-38
2023/09/24 03:21:42;;;;;;;;;;;;;;;24.47;55.06;100547.31;7399486;19;1386;-38
2023/09/24 03:24:14;;;;;;;;;;;;;;;24.47;54.95;100539.22;7396570;19;1561;-38
2023/09/24 03:26:43;;;;;;;;;;;;;;;24.49;55.02;100561.50;7398957;19;1416;-38
2023/09/24 03:29:11;;;;;;;;;;;;;;;24.47;55.09;100546.47;7396224;19;1847;-38
2023/09/24 03:31:40;;;;;;;;;;;;;;;24.49;55.05;100549.81;7398387;19;1314;-38
2023/09/24 03:34:08;;;;;;;;;;;;;;;24.43;54.95;100543.25;7396877;19;1373;-38
2023/09/24 03:36:37;;;;;;;;;;;;;;;24.50;54.58;100551.53;7398093;19;1436;-39
2023/09/24 03:39:06;;;;;;;;;;;;;;;24.42;54.82;100555.09;7399554;19;1664;-38
2023/09/24 03:41:37;;;;;;;;;;;;;;;24.38;54.55;100554.63;7398533;19;1337;-38
2023/09/24 03:44:06;;;;;;;;;;;;;;;24.36;54.72;100547.72;7399493;19;1577;-38
2023/09/24 03:46:34;;;;;;;;;;;;;;;24.38;54.84;100545.66;7397433;19;1718;-38
2023/09/24 03:49:03;;;;;;;;;;;;;;;24.33;54.79;100551.63;7397131;19;1869;-38
2023/09/24 03:51:31;;;;;;;;;;;;;;;24.34;54.75;100534.38;7397058;19;1781;-38
2023/09/24 03:53:59;;;;;;;;;;;;;;;24.39;54.54;100542.78;7383807;19;1386;-38
2023/09/24 03:56:27;;;;;;;;;;;;;;;24.37;54.56;100542.13;7398079;19;1355;-38
2023/09/24 03:58:58;;;;;;;;;;;;;;;24.37;54.60;100530.47;7396958;19;1442;-38
2023/09/24 04:01:26;;;;;;;;;;;;;;;24.44;54.58;100544.97;7395318;19;1324;-38
2023/09/24 04:03:55;;;;;;;;;;;;;;;24.39;54.64;100533.81;7396984;19;1393;-38
2023/09/24 04:06:23;;;;;;;;;;;;;;;24.39;54.83;100528.41;7397861;19;1460;-39
2023/09/24 04:08:52;;;;;;;;;;;;;;;24.41;54.46;100524.53;7394463;19;1843;-38
2023/09/24 04:11:21;;;;;;;;;;;;;;;24.34;54.51;100534.38;7398721;19;1692;-39
2023/09/24 04:13:49;;;;;;;;;;;;;;;24.37;55.00;100543.97;7398928;19;1370;-38
2023/09/24 04:16:21;;;;;;;;;;;;;;;24.37;54.84;100538.56;7397250;19;1722;-38
2023/09/24 04:18:50;;;;;;;;;;;;;;;24.32;54.76;100540.97;7393165;19;1269;-38
2023/09/24 04:21:19;;;;;;;;;;;;;;;24.38;54.91;100542.97;6865631;19;9999675;-38
2023/09/24 04:23:48;;;;;;;;;;;;;;;24.31;54.87;100547.38;7387454;19;2359;-38
2023/09/24 04:26:21;;;;;;;;;;;;;;;24.36;54.87;100542.31;7390166;19;1670;-38
2023/09/24 04:28:49;;;;;;;;;;;;;;;24.31;54.99;100550.09;7389077;19;1841;-38
2023/09/24 04:31:17;;;;;;;;;;;;;;;24.32;55.11;100552.63;7388544;19;1554;-38
2023/09/24 04:33:48;;;;;;;;;;;;;;;24.36;54.96;100528.78;7388200;19;1570;-38
2023/09/24 04:36:18;;;;;;;;;;;;;;;24.37;55.09;100550.25;7391915;19;1377;-39
2023/09/24 04:38:47;;;;;;;;;;;;;;;24.40;55.58;100549.88;7387985;19;1330;-38
2023/09/24 04:41:15;;;;;;;;;;;;;;;24.36;55.69;100551.25;7389975;19;1620;-38
2023/09/24 04:43:45;;;;;;;;;;;;;;;24.29;56.82;100552.97;7386927;19;1524;-39
2023/09/24 04:46:13;;;;;;;;;;;;;;;24.36;56.22;100555.81;7388719;19;1355;-38
2023/09/24 04:48:41;;;;;;;;;;;;;;;24.41;56.09;100556.09;7388320;19;1854;-38
2023/09/24 04:51:12;;;;;;;;;;;;;;;24.57;55.50;100550.69;7389571;19;1365;-38
2023/09/24 04:53:41;;;;;;;;;;;;;;;24.61;55.13;100549.28;7375135;19;1766;-39
2023/09/24 04:56:10;;;;;;;;;;;;;;;24.55;55.32;100555.41;7388663;19;1417;-39
2023/09/24 04:58:38;;;;;;;;;;;;;;;24.41;55.86;100558.81;7388483;19;1356;-39
2023/09/24 05:01:07;;;;;;;;;;;;;;;24.36;56.37;100550.41;7391193;19;1271;-38
2023/09/24 05:03:36;;;;;;;;;;;;;;;24.42;56.91;100557.81;7393966;19;1706;-38
2023/09/24 05:06:05;;;;;;;;;;;;;;;24.60;56.46;100568.41;7386493;19;1461;-38
2023/09/24 05:08:35;;;;;;;;;;;;;;;24.56;57.02;100576.00;7392848;19;1841;-38
2023/09/24 05:11:04;;;;;;;;;;;;;;;24.52;57.80;100580.09;7395064;19;1429;-38
2023/09/24 05:13:33;;;;;;;;;;;;;;;24.73;57.06;100581.31;7392299;19;1807;-38
2023/09/24 05:16:02;;;;;;;;;;;;;;;24.92;56.60;100580.03;7388108;19;1745;-38
2023/09/24 05:18:30;;;;;;;;;;;;;;;25.05;56.62;100574.00;7389856;19;1584;-38
2023/09/24 05:20:59;;;;;;;;;;;;;;;25.02;56.19;100564.41;7392030;19;1275;-38
2023/09/24 05:23:27;;;;;;;;;;;;;;;25.06;56.42;100575.72;7392008;19;1387;-38
2023/09/24 05:25:59;;;;;;;;;;;;;;;24.89;56.73;100583.94;7391347;19;1360;-39
2023/09/24 05:28:27;;;;;;;;;;;;;;;24.81;56.88;100565.91;7392412;19;1846;-38
2023/09/24 05:30:57;;;;;;;;;;;;;;;24.77;57.02;100567.28;7392874;19;1280;-39
2023/09/24 05:33:25;;;;;;;;;;;;;;;24.78;57.26;100562.72;7396149;19;992;-39
2023/09/24 05:35:54;;;;;;;;;;;;;;;24.73;57.46;100568.66;7394146;19;1557;-39
2023/09/24 05:38:23;;;;;;;;;;;;;;;24.64;57.31;100567.00;7392378;19;1318;-39
2023/09/24 05:40:51;;;;;;;;;;;;;;;24.59;57.45;100578.38;7395788;19;1220;-39
2023/09/24 05:43:22;;;;;;;;;;;;;;;24.57;57.72;100572.31;7395831;19;1420;-39
2023/09/24 05:45:51;;;;;;;;;;;;;;;24.55;57.78;100574.34;7394716;19;1327;-39
2023/09/24 05:48:20;;;;;;;;;;;;;;;24.55;57.78;100579.75;7395057;19;1839;-39
2023/09/24 05:50:48;;;;;;;;;;;;;;;24.52;57.82;100593.59;7394719;19;1670;-39
2023/09/24 05:53:17;;;;;;;;;;;;;;;24.53;58.04;100589.03;7376393;19;1705;-39
2023/09/24 05:55:53;;;;;;;;;;;;;;;24.50;57.76;100592.06;7394789;19;1371;-39
2023/09/24 05:58:24;;;;;;;;;;;;;;;24.54;57.99;100599.69;7394368;19;1866;-39
2023/09/24 06:00:52;;;;;;;;;;;;;;;24.51;57.80;100604.59;7394688;19;1651;-39
2023/09/24 06:03:21;;;;;;;;;;;;;;;24.51;57.99;100594.63;7394141;19;1373;-39
2023/09/24 06:05:49;;;;;;;;;;;;;;;24.54;58.23;100615.91;7391855;19;2445;-39
2023/09/24 06:08:17;;;;;;;;;;;;;;;24.54;58.06;100620.47;7393532;19;1849;-39
2023/09/24 06:10:46;;;;;;;;;;;;;;;24.54;58.03;100604.25;7395007;19;1576;-39
2023/09/24 06:13:15;;;;;;;;;;;;;;;24.53;58.08;100622.34;7392712;19;1477;-39
2023/09/24 06:15:47;;;;;;;;;;;;;;;24.53;57.98;100606.13;7392784;19;1251;-39
2023/09/24 06:18:15;;;;;;;;;;;;;;;24.52;58.31;100609.00;7392696;19;1396;-39
2023/09/24 06:20:43;;;;;;;;;;;;;;;24.52;58.19;100612.53;7394090;19;1464;-39
2023/09/24 06:23:12;;;;;;;;;;;;;;;24.52;58.27;100612.53;7394580;19;1403;-42
2023/09/24 06:25:40;;;;;;;;;;;;;;;24.51;58.33;100602.75;7394524;19;1310;-42
2023/09/24 06:28:09;;;;;;;;;;;;;;;24.54;58.37;100615.91;7398075;19;1841;-42
2023/09/24 06:30:38;;;;;;;;;;;;;;;24.55;58.25;100623.00;7402807;19;1606;-42
2023/09/24 06:33:09;;;;;;;;;;;;;;;24.54;58.26;100605.09;7401966;19;1537;-42
2023/09/24 06:35:38;;;;;;;;;;;;;;;24.53;58.21;100611.53;7401493;19;1698;-42
2023/09/24 06:38:07;;;;;;;;;;;;;;;24.54;58.17;100634.00;7401033;19;1650;-43
2023/09/24 06:40:38;;;;;;;;;;;;;;;24.55;58.31;100612.19;7402005;19;1524;-52
2023/09/24 06:43:07;;;;;;;;;;;;;;;24.58;58.08;100625.34;7401037;19;1647;-42
2023/09/24 06:45:35;;;;;;;;;;;;;;;24.57;58.27;100615.56;7397386;19;1599;-42
2023/09/24 06:48:03;;;;;;;;;;;;;;;24.61;58.24;100632.25;7399343;19;1834;-43
2023/09/24 06:50:34;;;;;;;;;;;;;;;24.63;58.32;100634.78;7401549;19;1477;-42
2023/09/24 06:53:03;;;;;;;;;;;;;;;24.61;58.14;100610.63;7383824;19;1378;-42
2023/09/24 06:55:31;;;;;;;;;;;;;;;24.61;58.31;100619.59;7401515;19;1429;-42
2023/09/24 06:57:59;;;;;;;;;;;;;;;24.60;58.17;100626.00;7401913;19;1476;-42
2023/09/24 07:00:28;;;;;;;;;;;;;;;24.65;58.22;100627.34;7399788;19;1624;-42
2023/09/24 07:02:56;;;;;;;;;;;;;;;24.60;58.13;100628.72;7398631;19;1608;-42
2023/09/24 07:05:24;;;;;;;;;;;;;;;24.64;58.17;100633.78;7400684;19;1567;-42
2023/09/24 07:07:55;;;;;;;;;;;;;;;24.68;58.38;100637.81;7402586;19;1517;-42
2023/09/24 07:10:24;;;;;;;;;;;;;;;24.65;58.38;100627.34;7400237;19;1862;-43
2023/09/24 07:12:54;;;;;;;;;;;;;;;24.66;58.35;100623.63;7400298;19;1468;-42
2023/09/24 07:15:22;;;;;;;;;;;;;;;24.61;58.19;100619.59;7398544;19;1441;-42
2023/09/24 07:17:50;;;;;;;;;;;;;;;24.68;58.18;100627.00;7397204;19;1627;-42
2023/09/24 07:20:20;;;;;;;;;;;;;;;24.66;58.44;100612.81;7401299;19;1729;-42
2023/09/24 07:22:48;;;;;;;;;;;;;;;24.71;58.20;100623.91;7400459;19;1492;-42
2023/09/24 07:25:19;;;;;;;;;;;;;;;24.67;58.15;100625.28;7402063;19;1310;-42
2023/09/24 07:27:47;;;;;;;;;;;;;;;24.71;58.08;100632.03;7400701;19;1797;-42
2023/09/24 07:30:17;;;;;;;;;;;;;;;24.72;58.04;100631.03;7398283;19;1850;-42
2023/09/24 07:32:47;;;;;;;;;;;;;;;24.69;58.19;100612.44;7399414;19;1620;-42
2023/09/24 07:35:15;;;;;;;;;;;;;;;24.74;58.08;100627.13;7400335;19;1579;-42
2023/09/24 07:37:43;;;;;;;;;;;;;;;24.73;58.14;100624.59;7400870;19;1548;-42
2023/09/24 07:40:13;;;;;;;;;;;;;;;24.71;58.17;100626.63;7397765;19;1797;-41
2023/09/24 07:42:46;;;;;;;;;;;;;;;24.73;58.05;100621.88;7399966;19;2035;-42
2023/09/24 07:45:15;;;;;;;;;;;;;;;24.75;58.17;100622.53;7400103;19;1642;-41
2023/09/24 07:47:43;;;;;;;;;;;;;;;24.76;58.20;100624.25;7399329;19;1619;-41
2023/09/24 07:50:12;;;;;;;;;;;;;;;24.78;58.05;100633.03;7397830;19;1840;-41
2023/09/24 07:52:40;;;;;;;;;;;;;;;24.77;58.08;100647.56;7399878;19;1386;-42
2023/09/24 07:55:09;;;;;;;;;;;;;;;24.79;57.98;100635.56;7386853;19;1619;-42
2023/09/24 07:57:38;;;;;;;;;;;;;;;24.79;58.10;100651.78;7399402;19;1655;-42
2023/09/24 08:00:10;;;;;;;;;;;;;;;24.80;58.05;100666.16;7400645;19;1588;-42
2023/09/24 08:02:38;;;;;;;;;;;;;;;24.79;58.22;100651.78;7399517;19;1378;-42
2023/09/24 08:05:07;;;;;;;;;;;;;;;24.79;58.13;100657.19;7398529;19;1659;-42
2023/09/24 08:07:36;;;;;;;;;;;;;;;24.81;58.22;100638.09;7400152;19;1295;-42
2023/09/24 08:10:04;;;;;;;;;;;;;;;24.83;58.11;100641.47;7397720;19;1861;-42
2023/09/24 08:12:32;;;;;;;;;;;;;;;24.82;58.14;100628.94;7397999;19;1215;-42
2023/09/24 08:15:01;;;;;;;;;;;;;;;24.84;57.95;100631.47;7398638;19;1576;-42
2023/09/24 08:17:32;;;;;;;;;;;;;;;24.84;58.29;100621.50;7398488;19;1544;-41
2023/09/24 08:20:00;;;;;;;;;;;;;;;24.86;58.18;100629.44;7398866;19;1595;-42
2023/09/24 08:22:28;;;;;;;;;;;;;;;24.86;58.00;100624.03;7397103;19;1355;-42
2023/09/24 08:24:57;;;;;;;;;;;;;;;24.89;57.97;100632.63;7400108;19;962;-42
2023/09/24 08:27:25;;;;;;;;;;;;;;;24.87;57.89;100629.25;7399171;19;1676;-42
2023/09/24 08:29:55;;;;;;;;;;;;;;;24.87;57.87;100628.41;7396418;19;1843;-42
2023/09/24 08:32:23;;;;;;;;;;;;;;;24.91;58.21;100627.88;7397271;19;1745;-43
2023/09/24 08:34:54;;;;;;;;;;;;;;;24.90;58.02;100626.19;7398712;19;1575;-42
2023/09/24 08:37:23;;;;;;;;;;;;;;;24.90;58.02;100631.59;7397971;19;1571;-42
2023/09/24 08:39:51;;;;;;;;;;;;;;;24.90;58.06;100615.38;7398211;19;1545;-42
2023/09/24 08:42:22;;;;;;;;;;;;;;;24.90;58.02;100611.84;7399434;19;1481;-42
2023/09/24 08:44:53;;;;;;;;;;;;;;;24.87;57.95;100604.94;7399943;19;948;-42
2023/09/24 08:47:23;;;;;;;;;;;;;;;24.91;57.83;100616.19;7398465;19;1809;-42
2023/09/24 08:49:51;;;;;;;;;;;;;;;24.91;57.91;100608.97;7395857;19;1847;-42
2023/09/24 08:52:23;;;;;;;;;;;;;;;24.89;57.94;100608.28;7397264;19;1715;-42
2023/09/24 08:54:52;;;;;;;;;;;;;;;24.94;57.88;100624.81;7383899;19;1683;-42
2023/09/24 08:57:20;;;;;;;;;;;;;;;24.94;58.09;100616.69;7397639;19;1963;-42
2023/09/24 08:59:48;;;;;;;;;;;;;;;24.95;57.96;100618.41;7398051;19;1573;-42
2023/09/24 09:02:17;;;;;;;;;;;;;;;24.94;57.99;100610.44;7396313;19;1517;-42
2023/09/24 09:04:51;;;;;;;;;;;;;;;24.94;58.00;100600.47;7396654;19;1604;-42
2023/09/24 09:07:22;;;;;;;;;;;;;;;24.91;57.91;100603.53;7398262;19;1525;-42
2023/09/24 09:09:57;;;;;;;;;;;;;;;24.92;58.04;100605.22;7396613;19;1843;-42
2023/09/24 09:12:26;;;;;;;;;;;;;;;24.94;57.89;100605.88;7397185;19;1603;-42
2023/09/24 09:14:55;;;;;;;;;;;;;;;24.94;57.86;100592.34;7398133;19;1694;-42
2023/09/24 09:17:24;;;;;;;;;;;;;;;24.94;58.08;100603.16;7396882;19;1572;-41
2023/09/24 09:19:53;;;;;;;;;;;;;;;24.96;58.07;100603.00;7396762;19;1672;-42
2023/09/24 09:22:25;;;;;;;;;;;;;;;25.00;58.06;100607.03;7396613;19;1560;-42
2023/09/24 09:25:03;;;;;;;;;;;;;;;24.99;57.90;100646.78;7397139;19;1345;-42
2023/09/24 09:27:33;;;;;;;;;;;;;;;24.96;57.98;100614.66;7398075;19;1490;-42
2023/09/24 09:30:12;;;;;;;;;;;;;;;25.01;57.95;100609.56;7395884;19;1854;-42
2023/09/24 09:32:40;;;;;;;;;;;;;;;25.02;57.84;100603.13;7396742;19;1702;-42
2023/09/24 09:35:09;;;;;;;;;;;;;;;25.03;57.99;100601.28;7396017;19;1359;-42
2023/09/24 09:37:41;;;;;;;;;;;;;;;25.05;57.93;100580.28;7397113;19;1584;-42
2023/09/24 09:40:10;;;;;;;;;;;;;;;25.05;57.74;100606.47;7397230;19;1640;-42
2023/09/24 09:42:39;;;;;;;;;;;;;;;25.04;58.07;100588.59;7394974;19;1402;-42
2023/09/24 09:45:08;;;;;;;;;;;;;;;25.01;58.01;100590.63;7395062;19;1298;-42
2023/09/24 09:47:38;;;;;;;;;;;;;;;25.04;57.86;100608.34;7393883;19;1725;-42
2023/09/24 09:50:07;;;;;;;;;;;;;;;25.02;57.94;100595.00;7394817;19;1849;-43
2023/09/24 09:52:38;;;;;;;;;;;;;;;25.06;58.07;100598.19;7396854;19;1576;-42
2023/09/24 09:55:09;;;;;;;;;;;;;;;25.07;58.09;100594.47;7380498;19;1459;-42
2023/09/24 09:57:38;;;;;;;;;;;;;;;25.09;57.85;100591.56;7397641;19;1009;-42
2023/09/24 10:00:09;;;;;;;;;;;;;;;25.09;57.82;100607.81;7395474;19;1492;-42
2023/09/24 10:02:38;;;;;;;;;;;;;;;25.10;57.81;100598.69;7397913;19;1528;-42
2023/09/24 10:05:09;;;;;;;;;;;;;;;25.07;57.85;100599.03;7401429;19;1937;-42
2023/09/24 10:07:38;;;;;;;;;;;;;;;25.08;57.98;100593.44;7404456;19;1606;-42
2023/09/24 10:10:21;;;;;;;;;;;;;;;25.08;57.95;100589.91;7401671;19;1845;-42
2023/09/24 10:12:52;;;;;;;;;;;;;;;25.08;57.76;100588.03;7403839;19;2645;-42
2023/09/24 10:15:27;;;;;;;;;;;;;;;25.00;58.85;100588.91;7401731;19;1369;-42
2023/09/24 10:18:11;;;;;;;;;;;;;;;24.78;58.26;100587.88;7402470;19;1414;-41
2023/09/24 10:20:55;;;;;;;;;;;;;;;24.64;57.35;100583.25;7403039;19;1398;-41
2023/09/24 10:23:38;;;;;;;;;;;;;;;24.30;57.65;100581.69;7402339;19;1473;-42
2023/09/24 10:26:07;;;;;;;;;;;;;;;24.25;58.02;100564.28;7402045;19;1283;-41
2023/09/24 10:28:50;;;;;;;;;;;;;;;24.25;58.00;100570.53;7403370;19;1391;-42
2023/09/24 10:31:24;;;;;;;;;;;;;;;24.19;58.15;100568.53;7400846;19;1846;-41
2023/09/24 10:33:59;;;;;;;;;;;;;;;24.18;58.07;100575.81;7402742;19;1327;-40
2023/09/24 10:36:29;;;;;;;;;;;;;;;24.17;57.95;100576.84;7403117;19;1382;-40
2023/09/24 10:39:04;;;;;;;;;;;;;;;24.15;57.97;100568.06;7402734;19;1615;-39
2023/09/24 10:41:33;;;;;;;;;;;;;;;24.14;57.84;100571.78;7402497;19;1236;-41
2023/09/24 10:44:16;;;;;;;;;;;;;;;24.14;57.48;100568.25;7402424;19;1584;-41
2023/09/24 10:46:47;;;;;;;;;;;;;;;24.08;57.62;100577.88;7401470;19;1483;-40
2023/09/24 10:49:21;;;;;;;;;;;;;;;24.04;57.69;100560.34;7402749;19;1580;-41
2023/09/24 10:51:49;;;;;;;;;;;;;;;24.08;57.42;100567.06;7402952;19;1362;-41
2023/09/24 10:54:18;;;;;;;;;;;;;;;23.98;57.49;100569.97;7383255;19;1592;-40
2023/09/24 10:56:49;;;;;;;;;;;;;;;24.04;57.25;100546.81;7396259;19;1677;-41
2023/09/24 10:59:18;;;;;;;;;;;;;;;24.12;56.86;100563.00;7399452;19;1793;-41
2023/09/24 11:01:49;;;;;;;;;;;;;;;24.09;57.04;100554.41;7400033;19;1605;-39
2023/09/24 11:04:26;;;;;;;;;;;;;;;24.00;57.34;100557.13;7401199;19;1670;-41
2023/09/24 11:06:55;;;;;;;;;;;;;;;23.96;57.02;100563.06;7397673;19;1359;-41
2023/09/24 11:09:23;;;;;;;;;;;;;;;23.89;57.00;100553.94;7394384;19;1719;-41
2023/09/24 11:11:51;;;;;;;;;;;;;;;23.80;57.16;100562.09;7401129;19;1648;-40
2023/09/24 11:14:22;;;;;;;;;;;;;;;23.82;57.07;100560.06;7397785;19;1807;-40
2023/09/24 11:16:53;;;;;;;;;;;;;;;23.80;57.39;100556.69;7399712;19;1397;-40
2023/09/24 11:19:37;;;;;;;;;;;;;;;23.77;57.78;100551.59;7399332;19;1406;-40
2023/09/24 11:22:16;;;;;;;;;;;;;;;23.88;58.27;100546.88;7396343;19;1657;-40
2023/09/24 11:24:45;;;;;;;;;;;;;;;23.97;58.84;100548.53;7398738;19;1402;-41
2023/09/24 11:27:13;;;;;;;;;;;;;;;23.93;59.11;100547.19;7392776;19;1577;-45
2023/09/24 11:29:41;;;;;;;;;;;;;;;24.04;59.32;100548.69;7389595;19;1857;-44
2023/09/24 11:32:26;;;;;;;;;;;;;;;23.91;59.36;100543.81;7396790;19;1673;-45
2023/09/24 11:35:07;;;;;;;;;;;;;;;24.00;59.23;100551.72;7396644;19;1691;-43
2023/09/24 11:37:50;;;;;;;;;;;;;;;23.88;59.18;100545.03;7398735;19;1460;-45
2023/09/24 11:40:28;;;;;;;;;;;;;;;23.88;59.40;100553.13;7399188;19;1534;-41
2023/09/24 11:42:58;;;;;;;;;;;;;;;23.77;59.08;100537.25;7395555;19;1350;-40
2023/09/24 11:45:42;;;;;;;;;;;;;;;23.76;59.59;100544.50;7395958;19;1616;-41
2023/09/24 11:48:14;;;;;;;;;;;;;;;23.81;59.98;100541.31;7397118;19;1505;-41
2023/09/24 11:50:43;;;;;;;;;;;;;;;23.79;60.44;100552.28;7397705;19;1845;-42
2023/09/24 11:53:12;;;;;;;;;;;;;;;23.79;60.54;100552.28;7397470;19;1296;-41
2023/09/24 11:55:40;;;;;;;;;;;;;;;23.78;60.88;100539.81;7379806;19;1731;-41
2023/09/24 11:58:10;;;;;;;;;;;;;;;23.86;61.13;100538.94;7396703;19;1372;-41
2023/09/24 12:00:39;;;;;;;;;;;;;;;23.85;61.32;100547.22;7394384;19;1576;-42
2023/09/24 12:03:08;;;;;;;;;;;;;;;23.93;61.25;100533.69;7394442;19;1686;-42
2023/09/24 12:05:39;;;;;;;;;;;;;;;23.87;61.75;100537.09;7395068;19;1656;-41
2023/09/24 12:08:08;;;;;;;;;;;;;;;23.88;61.67;100530.69;7392858;19;1770;-41
2023/09/24 12:10:38;;;;;;;;;;;;;;;23.92;61.52;100534.72;7392513;19;1834;-41
2023/09/24 12:13:06;;;;;;;;;;;;;;;23.90;61.81;100521.38;7393981;19;1568;-41
2023/09/24 12:15:35;;;;;;;;;;;;;;;23.95;61.82;100542.47;7394303;19;1658;-42
2023/09/24 12:18:04;;;;;;;;;;;;;;;23.87;61.40;100531.69;7393218;19;1596;-41
2023/09/24 12:20:34;;;;;;;;;;;;;;;23.71;61.83;100517.16;7393629;19;1631;-42
2023/09/24 12:23:06;;;;;;;;;;;;;;;23.73;61.81;100536.75;7397305;19;1324;-41
2023/09/24 12:25:36;;;;;;;;;;;;;;;23.77;61.87;100529.16;7398175;19;1414;-41
2023/09/24 12:28:05;;;;;;;;;;;;;;;23.80;61.99;100531.53;7399762;19;1655;-41
2023/09/24 12:30:34;;;;;;;;;;;;;;;23.77;62.23;100537.25;7399758;19;1851;-41
2023/09/24 12:33:04;;;;;;;;;;;;;;;23.77;61.98;100531.84;7398781;19;1746;-41
2023/09/24 12:35:32;;;;;;;;;;;;;;;23.81;62.04;100531.38;7399713;19;1630;-41
2023/09/24 12:38:01;;;;;;;;;;;;;;;23.79;62.02;100519.03;7399564;19;1616;-41
2023/09/24 12:40:32;;;;;;;;;;;;;;;23.82;61.79;100535.75;7399403;19;1792;-42
2023/09/24 12:43:00;;;;;;;;;;;;;;;23.81;61.91;100539.47;7398314;19;1658;-42
2023/09/24 12:45:28;;;;;;;;;;;;;;;23.64;62.01;100529.69;7398251;19;1302;-41
2023/09/24 12:47:56;;;;;;;;;;;;;;;23.53;62.38;100520.06;7398570;19;1670;-41
2023/09/24 12:50:26;;;;;;;;;;;;;;;23.62;62.16;100545.22;7397304;19;1846;-42
2023/09/24 12:52:54;;;;;;;;;;;;;;;23.73;62.11;100531.34;7399297;19;1682;-41
2023/09/24 12:55:23;;;;;;;;;;;;;;;23.68;62.38;100536.44;7384282;19;1604;-41
2023/09/24 12:57:53;;;;;;;;;;;;;;;23.78;62.02;100534.41;7398347;19;1520;-42
2023/09/24 13:00:23;;;;;;;;;;;;;;;23.80;62.15;100543.19;7397247;19;1385;-41